Time;durP1;ratioP1;P1;durP2;ratioP2;P2;SDS_P1;SDS_P2;PMS_P1;PMS_P2;Temp;Humidity;BMP_temperature;BMP_pressure;BME280_temperature;BME280_humidity;BME280_pressure;Samples;Min_cycle;Max_cycle;Signal;HPM_P1;HPM_P2
2022/08/13 00:00:36;;;;;;;;;;;14.30;99.90;;;;;;5053569;28;19944;-70
2022/08/13 00:03:05;;;;;;;;;;;14.40;99.90;;;;;;5053625;28;19909;-70
2022/08/13 00:05:32;;;;;;;;;;;14.40;99.90;;;;;;5053164;28;19925;-69
2022/08/13 00:07:58;;;;;;;;;;;14.40;99.90;;;;;;5053470;28;19908;-69
2022/08/13 00:10:28;;;;;;;;;;;14.50;99.90;;;;;;5052687;28;20302;-70
2022/08/13 00:12:58;;;;;;;;;;;14.60;99.90;;;;;;5051961;28;19948;-70
2022/08/13 00:15:28;;;;;;;;;;;14.60;99.90;;;;;;5053279;28;19912;-70
2022/08/13 00:17:57;;;;;;;;;;;14.70;99.90;;;;;;5053538;28;20414;-69
2022/08/13 00:20:25;;;;;;;;;;;14.70;99.90;;;;;;5052868;28;20325;-70
2022/08/13 00:22:54;;;;;;;;;;;14.70;99.90;;;;;;5053396;28;19996;-69
2022/08/13 00:25:21;;;;;;;;;;;14.70;99.90;;;;;;5052551;28;20279;-70
2022/08/13 00:27:47;;;;;;;;;;;14.60;99.90;;;;;;5053235;28;19959;-70
2022/08/13 00:30:15;;;;;;;;;;;14.60;99.90;;;;;;5053055;28;19909;-70
2022/08/13 00:32:45;;;;;;;;;;;14.60;99.90;;;;;;5053157;28;20221;-70
2022/08/13 00:35:12;;;;;;;;;;;14.60;99.90;;;;;;5053129;28;19998;-70
2022/08/13 00:37:41;;;;;;;;;;;14.60;99.90;;;;;;5053143;28;19916;-70
2022/08/13 00:40:11;;;;;;;;;;;14.60;99.90;;;;;;5052345;28;19919;-70
2022/08/13 00:42:39;;;;;;;;;;;14.50;99.90;;;;;;5053094;28;19909;-70
2022/08/13 00:45:08;;;;;;;;;;;14.50;99.90;;;;;;5052993;28;19967;-70
2022/08/13 00:50:20;;;;;;;;;;;14.50;99.90;;;;;;5052664;28;19974;-70
2022/08/13 00:52:49;;;;;;;;;;;14.50;99.90;;;;;;5052935;28;19909;-70
2022/08/13 00:55:18;;;;;;;;;;;14.60;99.90;;;;;;5052592;28;19924;-70
2022/08/13 00:57:45;;;;;;;;;;;14.80;99.90;;;;;;5052959;28;20279;-70
2022/08/13 01:00:17;;;;;;;;;;;14.80;99.90;;;;;;5052886;28;19913;-70
2022/08/13 01:02:48;;;;;;;;;;;14.90;99.90;;;;;;5052841;28;19975;-70
2022/08/13 01:05:15;;;;;;;;;;;14.80;99.90;;;;;;5052849;28;19919;-70
2022/08/13 01:07:43;;;;;;;;;;;14.90;99.90;;;;;;5052700;28;20332;-69
2022/08/13 01:10:11;;;;;;;;;;;14.90;99.90;;;;;;5052481;28;20001;-70
2022/08/13 01:12:39;;;;;;;;;;;15.10;99.90;;;;;;5052641;28;19916;-70
2022/08/13 01:15:07;;;;;;;;;;;15.30;99.90;;;;;;5052719;28;19917;-70
2022/08/13 01:17:35;;;;;;;;;;;15.60;99.90;;;;;;5052760;28;19913;-70
2022/08/13 01:20:04;;;;;;;;;;;15.70;99.90;;;;;;5052738;28;20382;-70
2022/08/13 01:22:31;;;;;;;;;;;15.60;99.90;;;;;;5056622;28;19915;-68
2022/08/13 01:24:58;;;;;;;;;;;15.60;99.90;;;;;;5056215;28;19908;-69
2022/08/13 01:27:26;;;;;;;;;;;15.80;99.90;;;;;;5056592;28;19947;-69
2022/08/13 01:29:53;;;;;;;;;;;16.20;99.90;;;;;;5054969;28;19909;-69
2022/08/13 01:32:21;;;;;;;;;;;16.60;99.90;;;;;;5056534;28;19966;-68
2022/08/13 01:34:50;;;;;;;;;;;16.80;99.90;;;;;;5056387;28;19920;-68
2022/08/13 01:37:17;;;;;;;;;;;16.40;99.90;;;;;;5056408;28;19931;-68
2022/08/13 01:39:44;;;;;;;;;;;16.00;99.90;;;;;;5056537;28;19915;-71
2022/08/13 01:42:20;;;;;;;;;;;15.80;99.90;;;;;;5060946;28;19993;-69
2022/08/13 01:44:50;;;;;;;;;;;15.70;99.90;;;;;;5067231;28;19919;-70
2022/08/13 01:52:47;;;;;;;;;;;15.50;99.90;;;;;;5075582;28;19915;-69
2022/08/13 01:55:14;;;;;;;;;;;15.50;99.90;;;;;;5072508;28;19994;-69
2022/08/13 01:57:43;;;;;;;;;;;15.60;99.90;;;;;;5075080;28;19958;-68
2022/08/13 02:00:13;;;;;;;;;;;15.50;99.90;;;;;;5073180;28;20298;-68
2022/08/13 02:02:43;;;;;;;;;;;15.50;99.90;;;;;;5074646;28;19926;-69
2022/08/13 02:05:10;;;;;;;;;;;15.70;99.90;;;;;;5073677;28;20282;-68
2022/08/13 02:07:43;;;;;;;;;;;15.70;99.90;;;;;;5080483;28;19912;-70
2022/08/13 02:10:09;;;;;;;;;;;15.70;99.90;;;;;;5093462;28;19908;-69
2022/08/13 02:12:36;;;;;;;;;;;15.70;99.90;;;;;;5093803;28;19915;-69
2022/08/13 02:15:05;;;;;;;;;;;15.70;99.90;;;;;;5094130;28;20013;-69
2022/08/13 02:17:41;;;;;;;;;;;15.80;99.90;;;;;;5093985;28;19919;-69
2022/08/13 02:20:12;;;;;;;;;;;15.80;99.90;;;;;;5093425;28;19998;-69
2022/08/13 02:22:40;;;;;;;;;;;15.90;99.90;;;;;;5093436;28;19912;-69
2022/08/13 02:25:07;;;;;;;;;;;15.90;99.90;;;;;;5094757;28;19961;-69
2022/08/13 02:27:33;;;;;;;;;;;15.80;99.90;;;;;;5094744;28;20274;-69
2022/08/13 02:30:00;;;;;;;;;;;15.70;99.90;;;;;;5094611;28;19915;-69
2022/08/13 02:32:27;;;;;;;;;;;15.70;99.90;;;;;;5093679;28;20248;-68
2022/08/13 02:34:56;;;;;;;;;;;15.60;99.90;;;;;;5094643;28;19923;-68
2022/08/13 02:37:23;;;;;;;;;;;15.60;99.90;;;;;;5094721;28;19961;-68
2022/08/13 02:39:50;;;;;;;;;;;15.70;99.90;;;;;;5094625;28;19908;-68
2022/08/13 02:42:19;;;;;;;;;;;15.70;99.90;;;;;;5094157;28;19969;-68
2022/08/13 02:44:49;;;;;;;;;;;15.70;99.90;;;;;;5094351;28;19927;-69
2022/08/13 02:47:17;;;;;;;;;;;15.70;99.90;;;;;;5094247;28;19916;-68
2022/08/13 02:49:43;;;;;;;;;;;15.80;99.90;;;;;;5093181;28;19908;-68
2022/08/13 02:52:10;;;;;;;;;;;15.90;99.90;;;;;;5094466;28;19915;-69
2022/08/13 02:54:42;;;;;;;;;;;15.90;99.90;;;;;;5094361;28;19916;-69
2022/08/13 02:57:10;;;;;;;;;;;15.90;99.90;;;;;;5095387;28;19937;-68
2022/08/13 02:59:41;;;;;;;;;;;15.90;99.90;;;;;;5094283;28;20131;-68
2022/08/13 03:02:10;;;;;;;;;;;15.90;99.90;;;;;;5095420;28;19919;-70
2022/08/13 03:04:38;;;;;;;;;;;15.90;99.90;;;;;;5094774;28;19908;-68
2022/08/13 03:07:05;;;;;;;;;;;16.00;99.90;;;;;;5094293;28;20270;-68
2022/08/13 03:09:31;;;;;;;;;;;16.00;99.90;;;;;;5095120;28;19919;-69
2022/08/13 03:12:04;;;;;;;;;;;16.10;99.90;;;;;;5095157;28;19908;-70
2022/08/13 03:14:34;;;;;;;;;;;16.20;99.90;;;;;;5094565;28;19916;-69
2022/08/13 03:17:01;;;;;;;;;;;16.30;99.90;;;;;;5094386;28;19948;-69
2022/08/13 03:19:28;;;;;;;;;;;16.30;99.90;;;;;;5094242;28;19915;-70
2022/08/13 03:21:54;;;;;;;;;;;16.30;99.90;;;;;;5095019;28;20366;-69
2022/08/13 03:24:21;;;;;;;;;;;16.30;99.90;;;;;;5093633;28;19965;-69
2022/08/13 03:26:48;;;;;;;;;;;16.20;99.90;;;;;;5094253;28;19959;-69
2022/08/13 03:29:18;;;;;;;;;;;16.20;99.90;;;;;;5093987;28;19915;-69
2022/08/13 03:31:44;;;;;;;;;;;16.20;99.90;;;;;;5093882;28;19908;-69
2022/08/13 03:34:11;;;;;;;;;;;16.10;99.90;;;;;;5093180;28;19939;-69
2022/08/13 03:36:38;;;;;;;;;;;16.00;99.90;;;;;;5093524;28;20284;-69
2022/08/13 03:39:05;;;;;;;;;;;15.90;99.90;;;;;;5093571;28;20008;-70
2022/08/13 03:41:32;;;;;;;;;;;16.00;99.90;;;;;;5093535;28;19912;-70
2022/08/13 03:43:59;;;;;;;;;;;16.00;99.90;;;;;;5093488;28;20278;-69
2022/08/13 03:46:27;;;;;;;;;;;16.00;99.90;;;;;;5093216;28;19927;-69
2022/08/13 03:48:55;;;;;;;;;;;15.90;99.90;;;;;;5093445;28;19919;-69
2022/08/13 03:51:23;;;;;;;;;;;15.90;99.90;;;;;;5092805;28;20304;-69
2022/08/13 03:53:56;;;;;;;;;;;15.80;99.90;;;;;;5093689;28;19981;-69
2022/08/13 03:56:25;;;;;;;;;;;15.80;99.90;;;;;;5093803;28;20326;-69
2022/08/13 03:58:53;;;;;;;;;;;15.90;99.90;;;;;;5093929;28;19919;-69
2022/08/13 04:01:20;;;;;;;;;;;15.90;99.90;;;;;;5093743;28;19909;-69
2022/08/13 04:03:47;;;;;;;;;;;16.00;99.90;;;;;;5093405;28;20317;-69
2022/08/13 04:06:21;;;;;;;;;;;16.00;99.90;;;;;;5093229;28;20270;-70
2022/08/13 04:08:48;;;;;;;;;;;16.00;99.90;;;;;;5093657;28;19912;-69
2022/08/13 04:11:17;;;;;;;;;;;16.00;99.90;;;;;;5094744;28;19922;-69
2022/08/13 04:13:45;;;;;;;;;;;16.10;99.90;;;;;;5096275;28;19923;-69
2022/08/13 04:16:15;;;;;;;;;;;16.20;99.90;;;;;;5093582;28;20286;-70
2022/08/13 04:18:43;;;;;;;;;;;16.30;99.90;;;;;;5093440;28;20376;-70
2022/08/13 04:21:11;;;;;;;;;;;16.30;99.90;;;;;;5093694;28;19950;-70
2022/08/13 04:23:39;;;;;;;;;;;16.40;99.90;;;;;;5092445;28;19908;-69
2022/08/13 04:26:06;;;;;;;;;;;16.40;99.90;;;;;;5092098;28;19987;-69
2022/08/13 04:28:33;;;;;;;;;;;16.40;99.90;;;;;;5074647;28;19908;-69
2022/08/13 04:31:00;;;;;;;;;;;16.40;99.90;;;;;;5076561;28;19909;-70
2022/08/13 04:33:28;;;;;;;;;;;16.40;99.90;;;;;;5074290;28;19912;-71
2022/08/13 04:35:56;;;;;;;;;;;16.50;99.90;;;;;;5075082;28;19909;-71
2022/08/13 04:38:23;;;;;;;;;;;16.50;99.90;;;;;;5073343;28;19909;-70
2022/08/13 04:40:51;;;;;;;;;;;16.60;99.90;;;;;;5077420;28;19909;-69
2022/08/13 04:43:17;;;;;;;;;;;16.60;99.90;;;;;;5076313;28;19962;-70
2022/08/13 04:45:45;;;;;;;;;;;16.50;99.90;;;;;;5073944;28;19921;-70
2022/08/13 04:48:13;;;;;;;;;;;16.60;99.90;;;;;;5073659;28;20282;-69
2022/08/13 04:50:41;;;;;;;;;;;16.50;99.90;;;;;;5073386;28;19908;-70
2022/08/13 04:53:11;;;;;;;;;;;16.50;99.90;;;;;;5073299;28;19908;-70
2022/08/13 04:55:38;;;;;;;;;;;16.40;99.90;;;;;;5077037;28;19913;-69
2022/08/13 04:58:08;;;;;;;;;;;16.40;99.90;;;;;;5079180;28;20365;-70
2022/08/13 05:00:35;;;;;;;;;;;16.40;99.90;;;;;;5077320;28;19999;-70
2022/08/13 05:03:12;;;;;;;;;;;16.30;99.90;;;;;;5070325;28;20058;-69
2022/08/13 05:05:39;;;;;;;;;;;16.20;99.90;;;;;;5071174;28;19920;-69
2022/08/13 05:08:07;;;;;;;;;;;16.20;99.90;;;;;;5075888;28;19909;-68
2022/08/13 05:10:38;;;;;;;;;;;16.20;99.90;;;;;;5074954;28;19915;-69
2022/08/13 05:13:24;;;;;;;;;;;16.30;99.90;;;;;;5076200;28;19920;-69
2022/08/13 05:15:52;;;;;;;;;;;16.30;99.90;;;;;;5075107;28;19919;-68
2022/08/13 05:18:19;;;;;;;;;;;16.40;99.90;;;;;;5074729;28;19920;-68
2022/08/13 05:20:46;;;;;;;;;;;16.50;99.90;;;;;;5076141;28;19908;-68
2022/08/13 05:23:16;;;;;;;;;;;16.60;99.90;;;;;;5075630;28;19909;-69
2022/08/13 05:25:43;;;;;;;;;;;16.50;99.90;;;;;;5075003;28;20361;-70
2022/08/13 05:28:09;;;;;;;;;;;16.50;99.90;;;;;;5075660;28;19915;-68
2022/08/13 05:30:39;;;;;;;;;;;16.40;99.90;;;;;;5075686;28;19996;-69
2022/08/13 05:33:16;;;;;;;;;;;16.40;99.90;;;;;;5073099;28;19909;-69
2022/08/13 05:35:44;;;;;;;;;;;16.40;99.90;;;;;;5051481;28;20035;-68
2022/08/13 05:38:11;;;;;;;;;;;16.40;99.90;;;;;;5055207;28;19916;-69
2022/08/13 05:40:41;;;;;;;;;;;16.40;99.90;;;;;;5055633;28;19909;-69
2022/08/13 05:43:27;;;;;;;;;;;16.50;99.90;;;;;;5055312;28;20003;-69
2022/08/13 05:45:57;;;;;;;;;;;16.40;99.90;;;;;;5055438;28;20398;-69
2022/08/13 05:48:25;;;;;;;;;;;16.50;99.90;;;;;;5055298;28;19919;-68
2022/08/13 05:50:51;;;;;;;;;;;16.50;99.90;;;;;;5055422;28;19954;-68
2022/08/13 05:53:18;;;;;;;;;;;16.50;99.90;;;;;;5082852;28;19953;-69
2022/08/13 05:55:45;;;;;;;;;;;16.60;99.90;;;;;;5084981;28;19955;-69
2022/08/13 05:58:12;;;;;;;;;;;16.60;99.90;;;;;;5075872;28;19913;-69
2022/08/13 06:03:31;;;;;;;;;;;16.70;99.90;;;;;;5075508;28;20430;-69
2022/08/13 06:05:59;;;;;;;;;;;16.80;99.90;;;;;;5075566;28;19909;-68
2022/08/13 06:08:30;;;;;;;;;;;16.80;99.90;;;;;;5075409;28;20363;-69
2022/08/13 06:10:57;;;;;;;;;;;16.70;99.90;;;;;;5075658;28;20003;-69
2022/08/13 06:13:25;;;;;;;;;;;16.60;99.90;;;;;;5075623;28;19920;-69
2022/08/13 06:16:00;;;;;;;;;;;16.50;99.90;;;;;;5075279;28;20015;-69
2022/08/13 06:18:31;;;;;;;;;;;16.50;99.90;;;;;;5073433;28;20373;-69
2022/08/13 06:20:58;;;;;;;;;;;16.40;99.90;;;;;;5075214;28;19987;-69
2022/08/13 06:23:26;;;;;;;;;;;16.40;99.90;;;;;;5075174;28;19915;-69
2022/08/13 06:25:53;;;;;;;;;;;16.30;99.90;;;;;;5075256;28;19916;-68
2022/08/13 06:28:21;;;;;;;;;;;16.20;99.90;;;;;;5072488;28;19919;-70
2022/08/13 06:30:49;;;;;;;;;;;16.20;99.90;;;;;;5074956;28;20319;-68
2022/08/13 06:33:19;;;;;;;;;;;16.10;99.90;;;;;;5071105;28;19920;-69
2022/08/13 06:35:48;;;;;;;;;;;16.00;99.90;;;;;;5072881;28;19919;-68
2022/08/13 06:38:16;;;;;;;;;;;16.00;99.90;;;;;;5074668;28;19909;-69
2022/08/13 06:40:44;;;;;;;;;;;15.80;99.90;;;;;;5073116;28;20286;-69
2022/08/13 06:43:10;;;;;;;;;;;15.80;99.90;;;;;;5072234;28;20347;-69
2022/08/13 06:45:39;;;;;;;;;;;15.80;99.80;;;;;;5072869;28;19966;-68
2022/08/13 06:48:05;;;;;;;;;;;15.80;99.20;;;;;;5073244;28;19943;-69
2022/08/13 06:50:37;;;;;;;;;;;15.80;99.90;;;;;;5073266;28;19923;-69
2022/08/13 06:53:05;;;;;;;;;;;15.70;99.90;;;;;;5086085;28;19939;-68
2022/08/13 06:55:34;;;;;;;;;;;15.60;99.60;;;;;;5074379;28;19989;-69
2022/08/13 06:58:01;;;;;;;;;;;15.50;99.90;;;;;;5074857;28;20379;-69
2022/08/13 07:00:28;;;;;;;;;;;15.50;99.90;;;;;;5073817;28;19915;-69
2022/08/13 07:02:54;;;;;;;;;;;15.50;99.90;;;;;;5074573;28;19908;-68
2022/08/13 07:05:40;;;;;;;;;;;15.60;98.70;;;;;;5074744;28;19909;-68
2022/08/13 07:08:09;;;;;;;;;;;15.60;98.90;;;;;;5074434;28;19916;-69
2022/08/13 07:10:36;;;;;;;;;;;15.60;99.20;;;;;;5073396;28;19908;-68
2022/08/13 07:13:05;;;;;;;;;;;15.50;99.30;;;;;;5074709;28;20456;-68
2022/08/13 07:15:32;;;;;;;;;;;15.40;99.90;;;;;;5072983;28;19921;-69
2022/08/13 07:17:59;;;;;;;;;;;15.40;99.40;;;;;;5072458;28;19908;-69
2022/08/13 07:20:26;;;;;;;;;;;15.40;99.90;;;;;;5072143;28;19909;-69
2022/08/13 07:22:54;;;;;;;;;;;15.30;99.90;;;;;;5072685;28;20061;-69
2022/08/13 07:25:22;;;;;;;;;;;15.30;99.80;;;;;;5072522;28;19916;-69
2022/08/13 07:27:50;;;;;;;;;;;15.30;99.90;;;;;;5072123;28;19917;-69
2022/08/13 07:30:17;;;;;;;;;;;15.20;99.90;;;;;;5073596;28;19930;-70
2022/08/13 07:32:44;;;;;;;;;;;15.20;99.60;;;;;;5073916;28;19908;-69
2022/08/13 07:35:11;;;;;;;;;;;15.10;99.90;;;;;;5074001;28;20359;-69
2022/08/13 07:37:42;;;;;;;;;;;15.10;99.90;;;;;;5074126;28;19958;-69
2022/08/13 07:40:09;;;;;;;;;;;15.10;99.90;;;;;;5073929;28;19909;-68
2022/08/13 07:42:38;;;;;;;;;;;15.00;99.90;;;;;;5073717;28;19908;-68
2022/08/13 07:45:05;;;;;;;;;;;15.00;99.90;;;;;;5073560;28;19972;-68
2022/08/13 07:47:32;;;;;;;;;;;15.00;99.90;;;;;;5073435;28;19968;-68
2022/08/13 07:50:01;;;;;;;;;;;15.00;99.90;;;;;;5070840;28;19912;-68
2022/08/13 07:52:29;;;;;;;;;;;14.90;99.90;;;;;;5071622;28;19915;-68
2022/08/13 07:55:00;;;;;;;;;;;14.90;99.90;;;;;;5071623;28;20381;-68
2022/08/13 07:57:31;;;;;;;;;;;14.90;99.90;;;;;;5071584;28;19918;-68
2022/08/13 07:59:58;;;;;;;;;;;14.90;99.90;;;;;;5071477;28;19916;-68
2022/08/13 08:02:28;;;;;;;;;;;14.90;99.90;;;;;;5070883;28;20371;-69
2022/08/13 08:04:57;;;;;;;;;;;14.90;99.90;;;;;;5071411;28;19962;-69
2022/08/13 08:07:25;;;;;;;;;;;14.80;99.90;;;;;;5071547;28;19920;-68
2022/08/13 08:09:52;;;;;;;;;;;14.80;99.90;;;;;;5071483;28;19969;-68
2022/08/13 08:12:38;;;;;;;;;;;14.70;99.90;;;;;;5071329;28;19956;-68
2022/08/13 08:15:08;;;;;;;;;;;14.70;99.90;;;;;;5071089;28;20538;-68
2022/08/13 08:17:35;;;;;;;;;;;14.60;99.90;;;;;;5071286;28;19970;-68
2022/08/13 08:20:02;;;;;;;;;;;14.60;99.90;;;;;;5071178;28;19908;-68
2022/08/13 08:22:30;;;;;;;;;;;14.60;99.90;;;;;;5071238;28;19919;-68
2022/08/13 08:24:57;;;;;;;;;;;14.60;99.90;;;;;;5071096;28;19919;-68
2022/08/13 08:27:25;;;;;;;;;;;14.50;99.90;;;;;;5070942;28;19919;-68
2022/08/13 08:29:52;;;;;;;;;;;14.50;99.90;;;;;;5071079;28;19969;-68
2022/08/13 08:32:19;;;;;;;;;;;14.40;99.90;;;;;;5070355;28;19909;-68
2022/08/13 08:34:47;;;;;;;;;;;14.50;99.90;;;;;;5070978;28;20054;-68
2022/08/13 08:42:53;;;;;;;;;;;14.50;99.90;;;;;;5071526;28;19966;-69
2022/08/13 08:45:21;;;;;;;;;;;14.50;99.90;;;;;;5070967;28;19973;-69
2022/08/13 08:47:52;;;;;;;;;;;14.50;99.90;;;;;;5070963;28;19912;-69
2022/08/13 08:50:20;;;;;;;;;;;14.40;99.90;;;;;;5070970;28;19932;-69
2022/08/13 08:55:36;;;;;;;;;;;14.30;99.90;;;;;;5062482;28;19928;-68
2022/08/13 08:58:04;;;;;;;;;;;14.30;99.90;;;;;;5050685;28;19982;-69
2022/08/13 09:00:33;;;;;;;;;;;14.30;99.90;;;;;;5050991;28;19916;-68
2022/08/13 09:03:00;;;;;;;;;;;14.40;99.90;;;;;;5050275;28;20283;-68
2022/08/13 09:05:27;;;;;;;;;;;14.30;99.90;;;;;;5052194;28;20310;-69
2022/08/13 09:07:55;;;;;;;;;;;14.30;99.90;;;;;;5052831;28;20370;-69
2022/08/13 09:10:23;;;;;;;;;;;14.20;99.90;;;;;;5052565;28;19942;-69
2022/08/13 09:12:53;;;;;;;;;;;14.20;99.90;;;;;;5052829;28;19913;-68
2022/08/13 09:15:23;;;;;;;;;;;14.20;99.90;;;;;;5052820;28;19916;-69
2022/08/13 09:17:50;;;;;;;;;;;14.20;99.90;;;;;;5051935;28;19992;-68
2022/08/13 09:20:26;;;;;;;;;;;14.20;99.90;;;;;;5052549;28;19923;-69
2022/08/13 09:23:12;;;;;;;;;;;14.20;99.90;;;;;;5052607;28;20280;-69
2022/08/13 09:25:44;;;;;;;;;;;14.10;99.90;;;;;;5052775;28;19916;-69
2022/08/13 09:28:11;;;;;;;;;;;14.00;99.90;;;;;;5052455;28;19916;-69
2022/08/13 09:30:39;;;;;;;;;;;14.00;99.90;;;;;;5052751;28;20363;-69
2022/08/13 09:33:06;;;;;;;;;;;13.90;99.90;;;;;;5051996;28;19916;-68
2022/08/13 09:35:33;;;;;;;;;;;13.90;99.90;;;;;;5051348;28;19917;-69
2022/08/13 09:38:01;;;;;;;;;;;13.90;99.90;;;;;;5052551;28;20012;-68
2022/08/13 09:40:28;;;;;;;;;;;13.90;99.90;;;;;;5052410;28;19992;-68
2022/08/13 09:43:03;;;;;;;;;;;13.90;99.90;;;;;;5054684;28;19917;-68
2022/08/13 09:45:33;;;;;;;;;;;13.90;99.90;;;;;;5055997;28;19956;-68
2022/08/13 09:48:00;;;;;;;;;;;13.90;99.90;;;;;;5055437;28;19909;-69
2022/08/13 09:50:27;;;;;;;;;;;13.90;99.90;;;;;;5055491;28;19916;-68
2022/08/13 09:52:56;;;;;;;;;;;13.90;99.90;;;;;;5056086;28;19963;-68
2022/08/13 09:55:23;;;;;;;;;;;13.80;99.90;;;;;;5056006;28;19989;-70
2022/08/13 09:57:51;;;;;;;;;;;13.80;99.90;;;;;;5056000;28;19916;-68
2022/08/13 10:00:24;;;;;;;;;;;13.80;99.90;;;;;;5055789;28;19931;-68
2022/08/13 10:03:12;;;;;;;;;;;13.70;99.90;;;;;;5055163;28;20330;-68
2022/08/13 10:05:39;;;;;;;;;;;13.70;99.90;;;;;;5055862;28;19979;-68
2022/08/13 10:08:07;;;;;;;;;;;13.60;99.90;;;;;;5055402;28;19931;-68
2022/08/13 10:10:34;;;;;;;;;;;13.40;99.90;;;;;;5055530;28;19909;-68
2022/08/13 10:13:01;;;;;;;;;;;13.30;99.90;;;;;;5087834;28;19908;-68
2022/08/13 10:15:28;;;;;;;;;;;13.30;99.90;;;;;;5055531;28;19917;-68
2022/08/13 10:17:56;;;;;;;;;;;13.20;99.90;;;;;;5055009;28;19948;-68
2022/08/13 10:20:24;;;;;;;;;;;13.30;99.90;;;;;;5055332;28;19909;-68
2022/08/13 10:22:53;;;;;;;;;;;13.20;99.90;;;;;;5054171;28;19958;-68
2022/08/13 10:25:20;;;;;;;;;;;13.20;99.90;;;;;;5055243;28;19909;-68
2022/08/13 10:27:47;;;;;;;;;;;13.20;99.90;;;;;;5055262;28;20322;-68
2022/08/13 10:30:14;;;;;;;;;;;13.10;99.90;;;;;;5055064;28;20307;-68
2022/08/13 10:32:41;;;;;;;;;;;13.10;99.90;;;;;;5054611;28;19915;-68
2022/08/13 10:35:09;;;;;;;;;;;13.00;99.90;;;;;;5055158;28;19917;-68
2022/08/13 10:37:45;;;;;;;;;;;13.00;99.90;;;;;;5055371;28;19908;-68
2022/08/13 10:40:15;;;;;;;;;;;13.00;99.90;;;;;;5053569;28;20210;-68
2022/08/13 10:42:44;;;;;;;;;;;13.10;99.90;;;;;;5053209;28;19920;-68
2022/08/13 10:45:12;;;;;;;;;;;13.00;99.90;;;;;;5067648;28;19931;-68
2022/08/13 10:47:46;;;;;;;;;;;13.00;99.90;;;;;;5072886;28;20020;-68
2022/08/13 10:50:13;;;;;;;;;;;12.80;99.90;;;;;;5072746;28;19913;-68
2022/08/13 10:52:40;;;;;;;;;;;12.70;99.90;;;;;;5072914;28;19908;-68
2022/08/13 10:55:09;;;;;;;;;;;12.60;99.90;;;;;;5071596;28;20416;-68
2022/08/13 10:57:39;;;;;;;;;;;12.60;99.90;;;;;;5072792;28;19913;-68
2022/08/13 11:00:08;;;;;;;;;;;12.70;99.90;;;;;;5072471;28;19915;-68
2022/08/13 11:02:35;;;;;;;;;;;12.80;99.90;;;;;;5072608;28;19912;-68
2022/08/13 11:05:03;;;;;;;;;;;12.80;99.90;;;;;;5072666;28;20166;-68
2022/08/13 11:07:31;;;;;;;;;;;12.90;99.90;;;;;;5072249;28;19918;-68
2022/08/13 11:09:57;;;;;;;;;;;12.90;99.90;;;;;;5068814;28;19908;-68
2022/08/13 11:12:24;;;;;;;;;;;13.00;99.90;;;;;;5072258;28;19908;-68
2022/08/13 11:14:51;;;;;;;;;;;13.00;99.90;;;;;;5070852;28;20317;-68
2022/08/13 11:17:19;;;;;;;;;;;12.90;99.90;;;;;;5072070;28;20003;-69
2022/08/13 11:19:48;;;;;;;;;;;12.90;99.90;;;;;;5071989;28;19912;-68
2022/08/13 11:22:16;;;;;;;;;;;12.90;99.90;;;;;;5072098;28;19908;-69
2022/08/13 11:24:43;;;;;;;;;;;12.90;99.90;;;;;;5064284;28;20375;-68
2022/08/13 11:27:10;;;;;;;;;;;12.90;99.90;;;;;;5057207;28;20368;-69
2022/08/13 11:29:36;;;;;;;;;;;12.80;99.90;;;;;;5051520;28;19971;-69
2022/08/13 11:32:04;;;;;;;;;;;12.80;99.90;;;;;;5050928;28;19913;-70
2022/08/13 11:34:31;;;;;;;;;;;12.90;99.90;;;;;;5051488;28;19952;-70
2022/08/13 11:36:57;;;;;;;;;;;12.80;99.90;;;;;;5051205;28;19909;-70
2022/08/13 11:39:24;;;;;;;;;;;12.80;99.90;;;;;;5050707;28;20286;-70
2022/08/13 11:41:51;;;;;;;;;;;12.80;99.90;;;;;;5051296;28;19917;-70
2022/08/13 11:44:18;;;;;;;;;;;12.80;99.90;;;;;;5050693;28;19924;-70
2022/08/13 11:46:44;;;;;;;;;;;12.80;99.90;;;;;;5050976;28;19908;-69
2022/08/13 11:49:11;;;;;;;;;;;12.80;99.90;;;;;;5051208;28;19999;-69
2022/08/13 11:51:38;;;;;;;;;;;12.70;99.90;;;;;;5050684;28;20280;-70
2022/08/13 11:54:05;;;;;;;;;;;12.70;99.90;;;;;;5050201;28;19920;-69
2022/08/13 11:56:32;;;;;;;;;;;12.60;99.90;;;;;;5050976;28;19920;-69
2022/08/13 11:58:58;;;;;;;;;;;12.60;99.90;;;;;;5050784;28;20017;-69
2022/08/13 12:01:25;;;;;;;;;;;12.70;99.90;;;;;;5050774;28;19916;-69
2022/08/13 12:03:55;;;;;;;;;;;12.70;99.90;;;;;;5050439;28;19913;-70
2022/08/13 12:06:22;;;;;;;;;;;12.60;99.90;;;;;;5050524;28;19975;-69
2022/08/13 12:08:48;;;;;;;;;;;12.60;99.90;;;;;;5050353;28;19960;-70
2022/08/13 12:11:16;;;;;;;;;;;12.50;99.90;;;;;;5050716;28;19919;-68
2022/08/13 12:13:43;;;;;;;;;;;12.50;99.90;;;;;;5050650;28;19919;-69
2022/08/13 12:16:10;;;;;;;;;;;12.50;99.90;;;;;;5050025;28;19919;-69
2022/08/13 12:18:37;;;;;;;;;;;12.50;99.90;;;;;;5050847;28;20415;-69
2022/08/13 12:21:04;;;;;;;;;;;12.50;99.90;;;;;;5051160;28;20027;-69
2022/08/13 12:23:30;;;;;;;;;;;12.50;99.90;;;;;;5050112;28;19990;-69
2022/08/13 12:25:57;;;;;;;;;;;12.40;99.90;;;;;;5050515;28;20369;-69
2022/08/13 12:28:25;;;;;;;;;;;12.40;99.90;;;;;;5050447;28;19919;-68
2022/08/13 12:30:53;;;;;;;;;;;12.40;99.90;;;;;;5049973;28;19959;-69
2022/08/13 12:33:20;;;;;;;;;;;12.40;99.90;;;;;;5050341;28;19913;-69
2022/08/13 12:35:47;;;;;;;;;;;12.40;99.90;;;;;;5050870;28;19913;-69
2022/08/13 12:38:14;;;;;;;;;;;12.40;99.90;;;;;;5049572;28;19916;-69
2022/08/13 12:40:42;;;;;;;;;;;12.40;99.90;;;;;;5049166;28;19919;-69
2022/08/13 12:43:09;;;;;;;;;;;12.40;99.90;;;;;;5050261;28;19913;-69
2022/08/13 12:45:37;;;;;;;;;;;12.40;99.90;;;;;;5050054;28;19921;-69
2022/08/13 12:48:07;;;;;;;;;;;12.40;99.90;;;;;;5050196;28;19912;-69
2022/08/13 12:50:34;;;;;;;;;;;12.40;99.90;;;;;;5050297;28;19912;-69
2022/08/13 12:53:01;;;;;;;;;;;12.40;99.90;;;;;;5049724;28;20283;-69
2022/08/13 12:55:28;;;;;;;;;;;12.50;99.90;;;;;;5049835;28;19928;-69
2022/08/13 12:57:55;;;;;;;;;;;12.50;99.90;;;;;;5050292;28;19909;-70
2022/08/13 13:00:22;;;;;;;;;;;12.50;99.90;;;;;;5049917;28;19917;-69
2022/08/13 13:02:49;;;;;;;;;;;12.50;99.90;;;;;;5050199;28;20255;-69
2022/08/13 13:05:16;;;;;;;;;;;12.50;99.90;;;;;;5050297;28;19920;-69
2022/08/13 13:07:44;;;;;;;;;;;12.50;99.90;;;;;;5049654;28;20415;-69
2022/08/13 13:10:10;;;;;;;;;;;12.50;99.90;;;;;;5049683;28;19913;-69
2022/08/13 13:12:37;;;;;;;;;;;12.50;99.90;;;;;;5050055;28;19913;-69
2022/08/13 13:15:04;;;;;;;;;;;12.50;99.90;;;;;;5049924;28;19924;-69
2022/08/13 13:17:31;;;;;;;;;;;12.50;99.90;;;;;;5051749;28;19951;-69
2022/08/13 13:20:00;;;;;;;;;;;12.40;99.90;;;;;;5053974;28;19919;-68
2022/08/13 13:22:26;;;;;;;;;;;12.40;99.90;;;;;;5052927;28;19908;-68
2022/08/13 13:24:54;;;;;;;;;;;12.50;99.90;;;;;;5053744;28;19909;-69
2022/08/13 13:27:21;;;;;;;;;;;12.40;99.90;;;;;;5054039;28;19936;-69
2022/08/13 13:29:48;;;;;;;;;;;12.40;99.90;;;;;;5053802;28;20295;-68
2022/08/13 13:32:15;;;;;;;;;;;12.40;99.90;;;;;;5053498;28;19911;-69
2022/08/13 13:34:44;;;;;;;;;;;12.40;99.90;;;;;;5053057;28;19916;-69
2022/08/13 13:37:14;;;;;;;;;;;12.40;99.90;;;;;;5053040;28;19913;-68
2022/08/13 13:39:41;;;;;;;;;;;12.40;99.90;;;;;;5053704;28;20015;-68
2022/08/13 13:42:09;;;;;;;;;;;12.40;99.90;;;;;;5053507;28;19917;-69
2022/08/13 13:44:35;;;;;;;;;;;12.40;99.90;;;;;;5053326;28;20267;-68
2022/08/13 13:47:02;;;;;;;;;;;12.30;99.90;;;;;;5053337;28;19920;-68
2022/08/13 13:49:29;;;;;;;;;;;12.30;99.90;;;;;;5053027;28;20359;-68
2022/08/13 13:51:55;;;;;;;;;;;12.30;99.90;;;;;;5052780;28;19966;-69
2022/08/13 13:54:22;;;;;;;;;;;12.20;99.90;;;;;;5053416;28;19960;-69
2022/08/13 13:56:49;;;;;;;;;;;12.20;99.90;;;;;;5053255;28;19908;-68
2022/08/13 13:59:16;;;;;;;;;;;12.30;99.90;;;;;;5052026;28;19999;-68
2022/08/13 14:01:42;;;;;;;;;;;12.30;99.90;;;;;;5052706;28;19919;-69
2022/08/13 14:04:09;;;;;;;;;;;12.20;99.90;;;;;;5052802;28;20426;-68
2022/08/13 14:06:36;;;;;;;;;;;12.20;99.90;;;;;;5052694;28;19909;-69
2022/08/13 14:09:03;;;;;;;;;;;12.20;99.90;;;;;;5053026;28;20222;-68
2022/08/13 14:11:31;;;;;;;;;;;12.30;99.90;;;;;;5052953;28;19916;-69
2022/08/13 14:13:57;;;;;;;;;;;12.20;99.90;;;;;;5052736;28;20287;-68
2022/08/13 14:16:24;;;;;;;;;;;12.20;99.90;;;;;;5052241;28;19913;-69
2022/08/13 14:18:51;;;;;;;;;;;12.20;99.90;;;;;;5066281;28;20359;-68
2022/08/13 14:21:21;;;;;;;;;;;12.20;99.90;;;;;;5075788;28;19954;-68
2022/08/13 14:23:48;;;;;;;;;;;12.30;99.90;;;;;;5075535;28;20359;-69
2022/08/13 14:26:14;;;;;;;;;;;12.20;99.90;;;;;;5075244;28;20278;-68
2022/08/13 14:28:43;;;;;;;;;;;12.10;99.90;;;;;;5075651;28;19950;-69
2022/08/13 14:31:10;;;;;;;;;;;12.20;99.90;;;;;;5075281;28;19916;-69
2022/08/13 14:33:39;;;;;;;;;;;12.20;99.90;;;;;;5075154;28;20429;-69
2022/08/13 14:36:06;;;;;;;;;;;12.20;99.90;;;;;;5075342;28;20058;-68
2022/08/13 14:38:32;;;;;;;;;;;12.20;99.90;;;;;;5075445;28;20286;-68
2022/08/13 14:41:01;;;;;;;;;;;12.20;99.90;;;;;;5075114;28;19908;-68